Terminal Aerodrome Forecast
Issued by NWS

Home | Current Version | Previous Version | Graphics & Text | Print | Product List | Glossary On
Versions: 1 2 3 4 5 6 7 8 9 10 11 12 13 14 15 16 17 18 19 20 21 22 23 24 25 26 27 28 29 30 31 32 33 34 35 36 37 38 39 40 41 42 43 44 45 46 47 48 49 50
000
FTUS43 KLOT 230534
TAFGYY
TAF
KGYY 230534Z 2306/2406 19010KT P6SM BKN015 BKN025
     FM230800 20012KT P6SM -SHRA SCT010 BKN020 BKN050
      TEMPO 2308/2311 4SM -TSRA BKN015CB BKN050
     FM231300 36011KT P6SM BKN012 BKN050
     FM231400 35010KT P6SM SCT020 BKN035
     FM231800 33011G18KT P6SM SCT035 BKN200=

USA.gov is the U.S. government's official web portal to all federal, state and local government web resources and services.